createdAt,value
2023-04-24T00:07:56.027Z,2.97
2023-04-24T00:09:20.078Z,3.03
2023-04-24T00:12:03.200Z,3.77
2023-04-24T00:13:26.759Z,3.04
2023-04-24T00:14:48.765Z,2.77
2023-04-24T00:16:10.447Z,3.02
2023-04-24T00:17:34.576Z,2.90
2023-04-24T00:18:56.014Z,2.86
2023-04-24T00:20:20.154Z,2.86
2023-04-24T00:21:45.484Z,2.83
2023-04-24T00:23:08.005Z,2.80
2023-04-24T00:24:30.456Z,3.07
2023-04-24T00:25:54.752Z,2.59
2023-04-24T00:27:17.451Z,2.93
2023-04-24T00:28:41.931Z,2.79
2023-04-24T00:30:20.822Z,2.82
2023-04-24T00:31:44.166Z,2.93
2023-04-24T00:33:06.160Z,2.74
2023-04-24T00:34:30.926Z,2.94
2023-04-24T00:35:52.895Z,2.94
2023-04-24T00:37:15.267Z,2.64
2023-04-24T00:38:37.731Z,2.87
2023-04-24T00:40:08.888Z,3.04
2023-04-24T00:41:31.501Z,3.26
2023-04-24T00:42:53.812Z,2.76
2023-04-24T00:44:16.200Z,2.93
2023-04-24T00:45:39.035Z,2.63
2023-04-24T00:47:02.422Z,2.79
2023-04-24T00:49:48.259Z,2.91
2023-04-24T00:51:12.282Z,3.24
2023-04-24T00:52:35.439Z,3.24
2023-04-24T00:53:58.031Z,3.28
2023-04-24T00:55:20.032Z,3.11
2023-04-24T00:56:42.958Z,3.53
2023-04-24T00:59:29.049Z,2.82
2023-04-24T01:00:51.369Z,3.07
2023-04-24T01:02:15.307Z,2.99
2023-04-24T01:03:37.586Z,3.29
2023-04-24T01:04:59.808Z,3.18
2023-04-24T01:06:21.709Z,3.08
2023-04-24T01:07:46.684Z,3.72
2023-04-24T01:09:09.115Z,4.43
2023-04-24T01:10:32.006Z,3.97
2023-04-24T01:11:59.270Z,4.24
2023-04-24T01:25:44.907Z,2.30
2023-04-24T01:27:09.238Z,3.07
2023-04-24T01:28:31.374Z,2.98
2023-04-24T01:29:57.076Z,3.27
2023-04-24T01:31:20.010Z,3.09
2023-04-24T01:32:44.617Z,3.12
2023-04-24T01:34:07.088Z,3.16
2023-04-24T01:35:28.337Z,2.52
2023-04-24T01:36:51.093Z,2.92
2023-04-24T01:38:12.982Z,3.80
2023-04-24T01:39:35.264Z,7.71
2023-04-24T01:40:59.037Z,7.67
2023-04-24T01:42:22.348Z,8.58
2023-04-24T01:45:00.233Z,6.24
2023-04-24T01:46:22.693Z,6.27
2023-04-24T01:47:44.390Z,6.26
2023-04-24T01:49:05.753Z,4.53
2023-04-24T01:50:27.586Z,4.64
2023-04-24T01:51:49.151Z,9.32
2023-04-24T01:53:11.749Z,5.58
2023-04-24T01:54:33.652Z,4.39
2023-04-24T01:55:56.048Z,4.02
2023-04-24T01:57:18.033Z,3.38
2023-04-24T01:58:40.137Z,3.67
2023-04-24T02:00:03.300Z,3.77
2023-04-24T02:01:25.980Z,3.67
2023-04-24T02:02:48.808Z,2.91
2023-04-24T02:04:10.717Z,3.74
2023-04-24T02:05:32.664Z,2.98
2023-04-24T02:06:54.855Z,3.03
2023-04-24T02:08:16.982Z,2.92
2023-04-24T02:09:39.367Z,3.20
2023-04-24T02:11:01.731Z,3.15
2023-04-24T02:12:24.136Z,3.33
2023-04-24T02:13:46.711Z,3.23
2023-04-24T02:15:09.817Z,2.90
2023-04-24T02:17:53.573Z,3.01
2023-04-24T02:19:15.992Z,4.89
2023-04-24T02:20:37.529Z,7.44
2023-04-24T02:21:59.299Z,12.92
2023-04-24T02:23:20.869Z,16.93
2023-04-24T02:24:42.841Z,12.82
2023-04-24T02:26:04.232Z,9.38
2023-04-24T02:27:26.596Z,6.61
2023-04-24T02:28:49.142Z,5.18
2023-04-24T02:30:12.481Z,4.73
2023-04-24T02:32:58.508Z,4.07
2023-04-24T02:34:20.570Z,4.72
2023-04-24T02:35:42.388Z,4.63
2023-04-24T02:37:04.438Z,4.68
2023-04-24T02:38:26.196Z,3.59
2023-04-24T02:39:51.940Z,5.01
2023-04-24T02:41:13.465Z,3.72
2023-04-24T02:42:37.234Z,3.89
2023-04-24T02:44:00.124Z,3.22
2023-04-24T02:45:22.120Z,3.59
2023-04-24T02:46:43.956Z,3.49
2023-04-24T02:48:05.658Z,3.18
2023-04-24T02:49:28.479Z,2.61
2023-04-24T02:50:51.054Z,3.42
2023-04-24T02:52:14.174Z,3.04
2023-04-24T02:53:36.312Z,3.14
2023-04-24T02:54:58.562Z,3.80
2023-04-24T02:56:21.314Z,3.31
2023-04-24T02:57:42.846Z,3.63
2023-04-24T02:59:05.504Z,3.33
2023-04-24T03:00:28.499Z,3.63
2023-04-24T03:01:51.151Z,3.58
2023-04-24T03:03:13.704Z,4.58
2023-04-24T03:04:35.796Z,3.87
2023-04-24T03:05:57.801Z,4.01
2023-04-24T03:07:21.068Z,3.56
2023-04-24T03:10:08.282Z,3.57
2023-04-24T03:11:32.655Z,4.06
2023-04-24T03:12:54.760Z,3.86
2023-04-24T03:14:16.712Z,3.66
2023-04-24T03:15:39.203Z,3.99
2023-04-24T03:17:00.829Z,3.54
2023-04-24T03:18:22.792Z,4.34
2023-04-24T03:19:44.280Z,3.28
2023-04-24T03:21:07.881Z,3.31
2023-04-24T03:22:29.721Z,3.64
2023-04-24T03:23:51.717Z,3.71
2023-04-24T03:25:17.577Z,3.40
2023-04-24T03:26:39.424Z,3.92
2023-04-24T03:28:01.299Z,4.29
2023-04-24T03:29:23.135Z,4.14
2023-04-24T03:30:44.728Z,3.62
2023-04-24T03:32:06.562Z,3.82
2023-04-24T03:33:30.120Z,3.69
2023-04-24T03:34:53.478Z,3.29
2023-04-24T03:36:17.856Z,3.77
2023-04-24T03:37:39.905Z,3.38
2023-04-24T03:39:01.335Z,4.30
2023-04-24T03:40:22.408Z,3.54
2023-04-24T03:41:44.534Z,3.91
2023-04-24T03:43:07.401Z,4.10
2023-04-24T03:44:30.879Z,3.66
2023-04-24T03:45:52.708Z,4.01
2023-04-24T03:47:14.449Z,3.74
2023-04-24T03:48:36.334Z,4.25
2023-04-24T03:49:58.394Z,4.18
2023-04-24T03:51:20.939Z,4.09
2023-04-24T03:52:44.528Z,4.03
2023-04-24T03:54:06.491Z,3.18
2023-04-24T03:55:28.809Z,2.93
2023-04-24T03:56:50.859Z,3.16
2023-04-24T03:58:12.671Z,3.19
2023-04-24T03:59:34.463Z,2.94
2023-04-24T04:00:55.788Z,2.98
2023-04-24T04:02:17.647Z,3.32
2023-04-24T04:03:41.675Z,3.70
2023-04-24T04:05:05.109Z,3.44
2023-04-24T04:06:27.099Z,3.58
2023-04-24T04:07:49.642Z,3.47
2023-04-24T04:09:11.373Z,2.74
2023-04-24T04:10:35.282Z,3.09
2023-04-24T04:11:57.148Z,4.28
2023-04-24T04:13:23.292Z,4.30
2023-04-24T04:14:45.887Z,2.83
2023-04-24T04:17:31.565Z,3.47
2023-04-24T04:18:54.695Z,3.51
2023-04-24T04:20:16.699Z,4.05
2023-04-24T04:21:39.172Z,11.03
2023-04-24T04:23:01.453Z,5.71
2023-04-24T04:24:23.524Z,3.27
2023-04-24T04:25:46.561Z,3.68
2023-04-24T04:27:09.106Z,6.88
2023-04-24T04:28:32.244Z,4.23
2023-04-24T04:29:55.057Z,4.33
2023-04-24T04:31:17.807Z,3.48
2023-04-24T04:32:39.428Z,3.84
2023-04-24T04:34:01.645Z,3.49
2023-04-24T04:35:23.586Z,2.73
2023-04-24T04:36:46.831Z,5.33
2023-04-24T04:38:09.517Z,4.38
2023-04-24T04:39:31.739Z,3.80
2023-04-24T04:40:55.511Z,3.80
2023-04-24T04:42:18.793Z,3.28
2023-04-24T04:43:41.838Z,3.93
2023-04-24T04:45:04.123Z,3.71
2023-04-24T04:46:25.895Z,2.71
2023-04-24T04:47:49.850Z,2.88
2023-04-24T04:49:12.564Z,3.13
2023-04-24T04:50:34.877Z,2.85
2023-04-24T04:51:56.417Z,3.11
2023-04-24T04:53:18.290Z,3.24
2023-04-24T04:54:40.545Z,3.20
2023-04-24T04:56:02.574Z,2.76
2023-04-24T04:57:24.624Z,3.55
2023-04-24T05:01:34.766Z,2.56
2023-04-24T05:03:05.954Z,3.27
2023-04-24T05:04:22.192Z,3.75
2023-04-24T05:05:43.830Z,3.43
2023-04-24T05:07:11.009Z,3.48
2023-04-24T05:08:35.169Z,3.23
2023-04-24T05:09:58.840Z,4.99
2023-04-24T05:11:29.493Z,9.99
2023-04-24T05:12:55.064Z,13.18
2023-04-24T05:14:17.524Z,5.39
2023-04-24T05:15:40.856Z,5.63
2023-04-24T05:17:03.467Z,6.06
2023-04-24T05:18:26.546Z,8.19
2023-04-24T05:19:56.330Z,7.16
2023-04-24T05:21:39.959Z,6.02
2023-04-24T05:23:03.243Z,9.34
2023-04-24T05:24:25.436Z,5.66
2023-04-24T05:25:48.888Z,4.46
2023-04-24T05:27:10.766Z,7.49
2023-04-24T05:28:34.189Z,14.62
2023-04-24T05:29:58.896Z,10.71
2023-04-24T05:31:23.102Z,9.97
2023-04-24T05:32:48.216Z,6.84
2023-04-24T05:34:13.204Z,6.97
2023-04-24T05:35:39.535Z,6.17
2023-04-24T05:37:04.696Z,6.54
2023-04-24T05:38:33.152Z,5.06
2023-04-24T05:39:57.031Z,3.94
2023-04-24T05:44:53.942Z,4.08
2023-04-24T05:48:06.504Z,3.42
2023-04-24T05:50:53.630Z,3.79
2023-04-24T05:57:26.919Z,3.40
2023-04-24T05:58:50.219Z,3.22
2023-04-24T06:00:17.772Z,4.57
2023-04-24T06:01:45.371Z,3.20
2023-04-24T06:04:56.301Z,3.12
2023-04-24T06:10:07.179Z,3.86
2023-04-24T06:22:10.865Z,4.23
2023-04-24T06:23:38.544Z,4.06
2023-04-24T06:25:02.954Z,3.59
2023-04-24T06:26:26.812Z,5.00
2023-04-24T06:27:48.950Z,5.32
2023-04-24T06:35:23.603Z,3.87
2023-04-24T07:19:49.236Z,4.18
2023-04-24T07:21:12.800Z,3.28
2023-04-24T09:35:17.924Z,4.33
2023-04-24T09:36:57.437Z,5.06
2023-04-24T09:38:21.899Z,4.23
2023-04-24T09:39:45.712Z,4.88
2023-04-24T09:42:54.217Z,5.86
2023-04-24T14:02:50.461Z,3.62
2023-04-24T15:16:26.432Z,2.01
2023-04-24T15:17:54.139Z,2.11
2023-04-24T15:19:23.805Z,2.26
2023-04-24T15:20:50.811Z,2.33
2023-04-24T15:22:18.950Z,2.60
2023-04-24T15:23:42.658Z,3.35
2023-04-24T15:25:09.086Z,2.20
2023-04-24T15:26:50.086Z,2.32
2023-04-24T15:28:20.020Z,2.53
2023-04-24T15:29:53.144Z,2.91
2023-04-24T15:31:15.404Z,1.87
2023-04-24T15:32:41.946Z,2.14
2023-04-24T15:34:12.080Z,3.49
2023-04-24T15:35:37.181Z,2.92
2023-04-24T15:37:00.972Z,2.57
2023-04-24T15:38:23.762Z,2.16
2023-04-24T15:39:46.642Z,2.45
2023-04-24T15:41:11.965Z,2.56
2023-04-24T15:42:36.014Z,2.64
2023-04-24T15:43:59.863Z,2.03
2023-04-24T15:45:29.708Z,3.49
2023-04-24T15:46:51.471Z,2.42
2023-04-24T15:48:14.707Z,2.12
2023-04-24T15:49:38.685Z,2.92
2023-04-24T15:51:03.640Z,2.91
2023-04-24T15:52:26.068Z,2.17
2023-04-24T15:53:52.909Z,3.16
2023-04-24T15:55:16.785Z,6.87
2023-04-24T15:56:42.607Z,4.07
2023-04-24T15:58:05.447Z,4.41
2023-04-24T15:59:34.849Z,2.99
2023-04-24T16:01:04.259Z,2.36
2023-04-24T16:02:28.970Z,2.52
2023-04-24T16:03:51.112Z,2.67
2023-04-24T16:05:13.851Z,2.32
2023-04-24T16:06:36.162Z,2.78
2023-04-24T16:07:57.901Z,2.85
2023-04-24T16:09:21.789Z,2.80
2023-04-24T16:10:43.863Z,2.36
2023-04-24T16:12:05.160Z,2.88
2023-04-24T16:13:27.634Z,3.38
2023-04-24T16:16:16.451Z,3.87
2023-04-24T16:19:02.068Z,3.23
2023-04-24T16:35:52.127Z,2.47
2023-04-24T16:37:13.740Z,2.90
2023-04-24T16:38:37.829Z,6.12
2023-04-24T16:40:08.090Z,5.78
2023-04-24T16:41:35.774Z,4.19
2023-04-24T16:43:00.128Z,3.67
2023-04-24T16:44:24.193Z,3.91
2023-04-24T16:45:46.320Z,3.51
2023-04-24T16:47:11.152Z,3.61
2023-04-24T16:48:37.938Z,5.22
2023-04-24T16:55:32.878Z,4.07
2023-04-24T16:56:54.697Z,3.36
2023-04-24T16:58:19.328Z,4.07
2023-04-24T16:59:43.837Z,5.23
2023-04-24T17:01:05.753Z,7.59
2023-04-24T17:02:29.108Z,8.39
2023-04-24T17:03:52.694Z,7.83
2023-04-24T17:05:15.596Z,5.01
2023-04-24T17:06:37.324Z,4.56
2023-04-24T17:07:59.387Z,3.68
2023-04-24T17:09:21.867Z,4.29
2023-04-24T17:10:44.834Z,4.42
2023-04-24T17:12:06.891Z,5.78
2023-04-24T17:13:29.211Z,5.87
2023-04-24T17:14:51.705Z,4.59
2023-04-24T17:18:55.317Z,4.46
2023-04-24T17:20:22.833Z,10.36
2023-04-24T17:21:42.827Z,37.70
2023-04-24T17:23:04.278Z,16.87
2023-04-24T17:24:26.990Z,9.23
2023-04-24T17:25:51.459Z,4.83
2023-04-24T17:27:15.358Z,4.16
2023-04-24T17:28:37.434Z,5.43
2023-04-24T17:30:00.616Z,6.86
2023-04-24T17:31:22.745Z,8.48
2023-04-24T17:32:46.509Z,7.08
2023-04-24T17:34:10.266Z,4.44
2023-04-24T17:35:34.932Z,3.61
2023-04-24T17:36:57.859Z,3.67
2023-04-24T17:39:47.837Z,3.65
2023-04-24T17:41:10.412Z,3.04
2023-04-24T17:42:34.545Z,3.76
2023-04-24T17:44:02.205Z,3.19
2023-04-24T17:45:25.591Z,2.97
2023-04-24T17:46:48.015Z,2.67
2023-04-24T18:00:31.699Z,3.17
2023-04-24T18:02:08.760Z,2.49
2023-04-24T18:03:30.988Z,2.89
2023-04-24T18:04:54.963Z,3.99
2023-04-24T18:06:17.264Z,4.00
2023-04-24T18:07:38.985Z,3.57
2023-04-24T18:09:01.315Z,3.92
2023-04-24T18:10:25.219Z,3.43
2023-04-24T18:11:48.576Z,6.01
2023-04-24T18:13:10.159Z,5.42
2023-04-24T18:14:32.683Z,5.06
2023-04-24T18:15:56.667Z,3.73
2023-04-24T18:17:36.731Z,3.87
2023-04-24T18:18:59.271Z,3.58
2023-04-24T18:20:24.048Z,3.26
2023-04-24T18:21:52.185Z,3.77
2023-04-24T18:56:47.442Z,5.02
2023-04-24T18:58:08.959Z,3.96
2023-04-24T18:59:31.116Z,3.46
2023-04-24T19:01:00.542Z,2.73
2023-04-24T19:02:33.514Z,2.96
2023-04-24T19:05:25.159Z,3.50
2023-04-24T19:06:48.952Z,3.02
2023-04-24T19:08:10.818Z,3.21
2023-04-24T19:09:33.459Z,3.09
2023-04-24T19:12:17.944Z,4.03
2023-04-24T19:13:40.544Z,2.87
2023-04-24T19:15:04.532Z,2.79
2023-04-24T19:16:27.088Z,3.12
2023-04-24T19:17:48.670Z,2.64
2023-04-24T19:19:14.982Z,2.89
2023-04-24T19:20:37.116Z,3.13
2023-04-24T19:21:59.454Z,3.05
2023-04-24T19:23:24.708Z,2.92
2023-04-24T19:24:46.905Z,2.70
2023-04-24T19:26:13.613Z,2.49
2023-04-24T19:27:34.880Z,2.82
2023-04-24T19:28:58.722Z,2.72
2023-04-24T19:31:48.784Z,2.99
2023-04-24T19:33:12.082Z,2.66
2023-04-24T19:34:34.356Z,2.31
2023-04-24T19:36:05.613Z,2.94
2023-04-24T19:37:28.301Z,3.26
2023-04-24T19:38:51.166Z,2.64
2023-04-24T19:40:14.075Z,9.06
2023-04-24T19:53:37.601Z,2.59
2023-04-24T20:08:50.674Z,2.44
2023-04-24T20:22:40.580Z,2.77
2023-04-24T21:00:16.742Z,2.59
2023-04-24T21:50:52.858Z,3.25
2023-04-24T21:52:15.912Z,4.02
2023-04-24T21:55:04.002Z,3.20
2023-04-24T21:56:31.234Z,3.18
2023-04-24T21:57:54.992Z,3.49
2023-04-24T21:59:18.086Z,3.51
2023-04-24T22:00:40.557Z,3.39
2023-04-24T22:02:03.308Z,3.21
2023-04-24T22:03:25.536Z,3.22
2023-04-24T22:04:47.732Z,3.64
2023-04-24T22:06:10.928Z,3.02
2023-04-24T22:19:55.836Z,2.88
2023-04-24T22:21:18.440Z,3.07
2023-04-24T22:22:41.214Z,3.30
2023-04-24T22:24:02.963Z,2.89
2023-04-24T22:25:25.400Z,3.49
2023-04-24T22:26:48.701Z,3.56
2023-04-24T22:28:10.099Z,3.24
2023-04-24T22:29:32.719Z,4.50
2023-04-24T22:30:55.881Z,5.74
2023-04-24T22:32:17.204Z,4.24
2023-04-24T22:33:39.574Z,4.53
2023-04-24T22:35:02.494Z,4.76
2023-04-24T22:36:23.904Z,4.55
2023-04-24T22:37:46.328Z,4.33
2023-04-24T22:39:09.017Z,4.22
2023-04-24T22:40:30.838Z,4.06
2023-04-24T22:41:52.238Z,5.67
2023-04-24T22:43:14.611Z,4.08
2023-04-24T22:44:36.732Z,4.62
2023-04-24T22:45:59.009Z,5.74
2023-04-24T22:47:21.590Z,4.58
2023-04-24T22:48:44.403Z,4.08
2023-04-24T22:50:07.084Z,5.70
2023-04-24T22:51:29.217Z,5.35
2023-04-24T22:52:53.676Z,4.83
2023-04-24T22:54:17.115Z,5.69
2023-04-24T22:55:38.721Z,4.47
2023-04-24T22:57:00.779Z,4.19
2023-04-24T22:58:23.212Z,5.15
2023-04-24T22:59:46.236Z,4.82
2023-04-24T23:01:07.927Z,4.77
2023-04-24T23:02:30.201Z,6.11
2023-04-24T23:03:51.826Z,6.17
2023-04-24T23:05:14.878Z,5.42
2023-04-24T23:06:36.343Z,4.77
2023-04-24T23:07:58.363Z,5.19
2023-04-24T23:09:21.544Z,6.24
2023-04-24T23:10:44.000Z,5.84
2023-04-24T23:12:06.305Z,10.69
2023-04-24T23:13:29.648Z,9.48
2023-04-24T23:14:51.560Z,6.69
2023-04-24T23:16:14.123Z,4.44
2023-04-24T23:17:36.214Z,3.75
2023-04-24T23:18:58.257Z,5.56
2023-04-24T23:20:21.257Z,4.83
2023-04-24T23:21:43.704Z,4.22
2023-04-24T23:23:04.866Z,3.52
2023-04-24T23:24:27.322Z,5.32
2023-04-24T23:25:49.707Z,3.73
2023-04-24T23:27:12.274Z,3.75
2023-04-24T23:28:33.915Z,4.18
2023-04-24T23:29:55.246Z,5.03
2023-04-24T23:31:17.158Z,6.24
2023-04-24T23:32:38.837Z,3.99
2023-04-24T23:34:02.030Z,5.33
2023-04-24T23:35:24.041Z,5.39
2023-04-24T23:36:46.939Z,4.37
2023-04-24T23:38:08.822Z,4.24
2023-04-24T23:39:31.195Z,4.02
2023-04-24T23:40:53.030Z,3.99
2023-04-24T23:42:15.153Z,3.29
2023-04-24T23:43:37.013Z,3.64
2023-04-24T23:44:58.866Z,3.77
2023-04-24T23:46:20.549Z,3.77
2023-04-24T23:47:42.834Z,3.47
2023-04-24T23:49:05.381Z,3.68
2023-04-24T23:50:26.635Z,3.45
2023-04-24T23:51:49.799Z,4.34
2023-04-24T23:53:12.016Z,4.20
2023-04-24T23:54:33.397Z,5.29
2023-04-24T23:55:54.751Z,4.33
2023-04-24T23:57:17.110Z,5.19
2023-04-24T23:58:53.091Z,9.80
